Time;durP1;ratioP1;P1;durP2;ratioP2;P2;SDS_P1;SDS_P2;PMS_P1;PMS_P2;Temp;Humidity;BMP_temperature;BMP_pressure;BME280_temperature;BME280_humidity;BME280_pressure;Samples;Min_cycle;Max_cycle;Signal;HPM_P1;HPM_P2
2022/12/16 00:02:19;;;;;;;20.67;11.32;;;-4.90;99.90;;;;;;4987729;28;20054;-76
2022/12/16 00:04:46;;;;;;;22.13;11.68;;;-4.90;99.90;;;;;;4973912;28;20150;-75
2022/12/16 00:07:14;;;;;;;21.85;11.95;;;-5.00;99.90;;;;;;4982300;28;20043;-75
2022/12/16 00:09:43;;;;;;;27.63;10.73;;;-5.00;99.90;;;;;;4978703;28;20726;-75
2022/12/16 00:12:10;;;;;;;27.65;12.57;;;-5.00;99.90;;;;;;4990480;28;20068;-75
2022/12/16 00:14:37;;;;;;;33.90;11.35;;;-5.00;99.90;;;;;;4989288;28;20140;-77
2022/12/16 00:17:05;;;;;;;25.55;10.98;;;-5.00;99.90;;;;;;5003051;28;20061;-75
2022/12/16 00:19:33;;;;;;;21.50;11.65;;;-5.00;99.90;;;;;;4983336;28;20050;-76
2022/12/16 00:22:00;;;;;;;20.20;11.77;;;-5.10;99.90;;;;;;4989378;28;20475;-75
2022/12/16 00:24:30;;;;;;;16.90;9.43;;;-5.20;99.90;;;;;;4987133;28;20100;-76
2022/12/16 00:26:59;;;;;;;23.50;11.57;;;-5.20;99.90;;;;;;4987930;28;20133;-75
2022/12/16 00:29:27;;;;;;;24.30;12.27;;;-5.20;99.90;;;;;;4978288;28;20435;-76
2022/12/16 00:31:54;;;;;;;21.67;11.60;;;-5.30;99.90;;;;;;4986060;28;20050;-76
2022/12/16 00:34:22;;;;;;;19.50;11.48;;;-5.30;99.90;;;;;;4986063;28;20058;-75
2022/12/16 00:36:49;;;;;;;21.88;11.60;;;-5.20;99.90;;;;;;4988176;28;22504;-75
2022/12/16 00:39:17;;;;;;;20.48;11.10;;;-5.20;99.90;;;;;;4988531;28;20058;-70
2022/12/16 00:41:46;;;;;;;25.50;12.57;;;-5.30;99.90;;;;;;4989006;28;20054;-70
2022/12/16 00:44:15;;;;;;;21.65;11.65;;;-5.30;99.90;;;;;;4986798;28;20042;-71
2022/12/16 00:46:43;;;;;;;19.05;11.63;;;-5.30;99.90;;;;;;4988488;28;20112;-70
2022/12/16 00:49:10;;;;;;;28.60;13.57;;;-5.30;99.90;;;;;;4990075;28;20597;-70
2022/12/16 00:51:38;;;;;;;24.05;12.45;;;-5.30;99.90;;;;;;4988147;28;20113;-70
2022/12/16 00:54:05;;;;;;;24.38;12.70;;;-5.30;99.90;;;;;;4993301;28;20093;-70
2022/12/16 00:56:33;;;;;;;21.88;12.60;;;-5.20;99.90;;;;;;4992247;28;20051;-70
2022/12/16 00:59:03;;;;;;;26.42;13.93;;;-5.20;99.90;;;;;;4995206;28;20145;-69
2022/12/16 01:01:32;;;;;;;23.85;13.40;;;-5.10;99.90;;;;;;4992878;28;20064;-75
2022/12/16 01:04:00;;;;;;;27.58;13.07;;;-5.10;99.90;;;;;;4992918;28;20153;-75
2022/12/16 01:06:27;;;;;;;23.73;12.70;;;-5.10;99.90;;;;;;4993183;28;20050;-75
2022/12/16 01:08:55;;;;;;;23.85;12.57;;;-5.10;99.90;;;;;;4991513;28;20133;-75
2022/12/16 01:11:22;;;;;;;22.67;12.88;;;-5.10;99.90;;;;;;4992887;28;20046;-77
2022/12/16 01:13:52;;;;;;;27.13;13.27;;;-5.10;99.90;;;;;;4991482;28;20391;-75
2022/12/16 01:16:19;;;;;;;22.50;12.63;;;-5.10;99.90;;;;;;4993798;28;20050;-75
2022/12/16 01:18:48;;;;;;;21.40;11.75;;;-5.10;99.90;;;;;;4992833;28;20084;-75
2022/12/16 01:21:16;;;;;;;22.23;12.00;;;-5.10;99.90;;;;;;4991770;28;20064;-76
2022/12/16 01:23:44;;;;;;;22.13;12.13;;;-5.00;99.90;;;;;;4991995;28;20074;-76
2022/12/16 01:26:16;;;;;;;28.77;13.88;;;-5.00;99.90;;;;;;4993856;28;20510;-75
2022/12/16 01:28:44;;;;;;;24.65;13.88;;;-4.90;99.90;;;;;;4992340;28;20407;-75
2022/12/16 01:31:15;;;;;;;23.52;12.85;;;-4.90;99.90;;;;;;4998681;28;20049;-76
2022/12/16 01:33:43;;;;;;;25.63;13.02;;;-4.90;99.90;;;;;;4993930;28;20065;-75
2022/12/16 01:36:12;;;;;;;22.95;12.02;;;-4.80;99.90;;;;;;4993085;28;20058;-76
2022/12/16 01:38:44;;;;;;;29.00;13.55;;;-4.80;99.90;;;;;;4990757;28;20056;-75
2022/12/16 01:41:14;;;;;;;44.78;13.57;;;-4.80;99.90;;;;;;4984947;28;20422;-76
2022/12/16 01:43:44;;;;;;;33.47;15.15;;;-4.80;99.90;;;;;;4990394;28;20380;-75
2022/12/16 01:46:20;;;;;;;32.83;15.45;;;-4.80;99.90;;;;;;5000584;28;20458;-74
2022/12/16 01:48:51;;;;;;;34.92;17.15;;;-4.90;99.90;;;;;;5002432;28;20046;-76
2022/12/16 01:51:26;;;;;;;35.13;15.40;;;-4.80;99.90;;;;;;4994296;28;20046;-76
2022/12/16 01:54:00;;;;;;;36.58;16.50;;;-4.80;99.90;;;;;;4993050;28;20061;-75
2022/12/16 01:56:32;;;;;;;54.13;17.13;;;-4.80;99.90;;;;;;4991155;28;20101;-76
2022/12/16 01:59:00;;;;;;;31.10;15.80;;;-4.90;99.90;;;;;;4974430;28;20057;-76
2022/12/16 02:01:28;;;;;;;32.75;15.55;;;-4.80;99.90;;;;;;4991698;28;20479;-76
2022/12/16 02:04:00;;;;;;;32.50;17.27;;;-4.90;99.90;;;;;;4992163;28;20046;-75
2022/12/16 02:06:31;;;;;;;31.42;15.10;;;-4.90;99.90;;;;;;4988068;28;20050;-76
2022/12/16 02:09:01;;;;;;;28.25;15.45;;;-5.00;99.90;;;;;;4990372;28;20546;-76
2022/12/16 02:11:59;;;;;;;30.98;15.57;;;-5.10;99.90;;;;;;4991819;28;20503;-75
2022/12/16 02:14:56;;;;;;;32.85;16.38;;;-5.10;99.90;;;;;;4993382;28;20068;-75
2022/12/16 02:17:32;;;;;;;30.83;15.82;;;-5.20;99.90;;;;;;4991233;28;20480;-75
2022/12/16 02:20:57;;;;;;;28.80;15.57;;;-5.20;99.90;;;;;;4992878;28;20050;-75
2022/12/16 02:23:58;;;;;;;30.92;14.43;;;-5.20;99.90;;;;;;4993020;28;20046;-75
2022/12/16 02:27:16;;;;;;;24.88;13.73;;;-5.20;99.90;;;;;;4988970;28;20054;-75
2022/12/16 02:30:22;;;;;;;27.17;14.32;;;-5.30;99.90;;;;;;4978082;28;20145;-76
2022/12/16 02:32:59;;;;;;;25.35;14.20;;;-5.30;99.90;;;;;;4972780;28;20537;-75
2022/12/16 02:35:37;;;;;;;29.70;15.25;;;-5.30;99.90;;;;;;4986323;28;20404;-76
2022/12/16 02:38:19;;;;;;;28.52;14.20;;;-5.30;99.90;;;;;;4991386;28;20047;-75
2022/12/16 02:40:55;;;;;;;30.98;16.02;;;-5.30;99.90;;;;;;4993033;28;20043;-76
2022/12/16 02:43:41;;;;;;;30.67;15.15;;;-5.30;99.90;;;;;;4989588;28;20510;-76
2022/12/16 02:46:10;;;;;;;26.27;14.43;;;-5.30;99.90;;;;;;4983662;28;20415;-75
2022/12/16 02:48:38;;;;;;;27.50;14.60;;;-5.30;99.90;;;;;;4992185;28;20052;-76
2022/12/16 02:51:06;;;;;;;29.30;14.95;;;-5.30;99.90;;;;;;4992461;28;20054;-75
2022/12/16 02:53:38;;;;;;;32.67;16.58;;;-5.20;99.90;;;;;;4970363;28;20043;-75
2022/12/16 02:56:18;;;;;;;26.65;14.32;;;-5.20;99.90;;;;;;4992167;28;20152;-76
2022/12/16 02:58:52;;;;;;;31.15;15.52;;;-5.20;99.90;;;;;;4992359;28;20054;-77
2022/12/16 03:01:31;;;;;;;27.65;14.68;;;-5.20;99.90;;;;;;4989487;28;20054;-74
2022/12/16 03:04:06;;;;;;;26.95;14.15;;;-5.10;99.90;;;;;;4988057;28;20059;-75
2022/12/16 03:06:37;;;;;;;28.48;13.40;;;-5.00;99.90;;;;;;4992336;28;20510;-76
2022/12/16 03:09:09;;;;;;;27.50;14.70;;;-5.00;99.90;;;;;;4993397;28;20054;-75
2022/12/16 03:11:41;;;;;;;26.98;14.80;;;-5.00;99.90;;;;;;4989149;28;20074;-75
2022/12/16 03:14:14;;;;;;;28.38;15.07;;;-5.00;99.90;;;;;;4991725;28;20053;-74
2022/12/16 03:16:43;;;;;;;32.85;15.80;;;-5.00;99.90;;;;;;4978871;28;20058;-76
2022/12/16 03:19:13;;;;;;;29.95;14.88;;;-5.00;99.90;;;;;;4993356;28;20129;-76
2022/12/16 03:21:49;;;;;;;30.40;16.55;;;-5.00;99.90;;;;;;4989894;28;20054;-75
2022/12/16 03:24:20;;;;;;;31.20;15.45;;;-5.00;99.90;;;;;;4991966;28;20120;-75
2022/12/16 03:26:56;;;;;;;29.55;14.77;;;-5.00;99.90;;;;;;4990896;28;20046;-76
2022/12/16 03:29:35;;;;;;;32.03;16.38;;;-5.00;99.90;;;;;;4989467;28;20050;-77
2022/12/16 03:32:10;;;;;;;29.95;15.20;;;-5.10;99.90;;;;;;4987544;28;20042;-77
2022/12/16 03:34:45;;;;;;;29.80;16.17;;;-5.00;99.90;;;;;;4973596;28;20042;-76
2022/12/16 03:37:14;;;;;;;36.45;16.15;;;-5.10;99.90;;;;;;4988993;28;20050;-75
2022/12/16 03:39:46;;;;;;;28.65;15.80;;;-5.10;99.90;;;;;;4989494;28;20546;-76
2022/12/16 03:42:15;;;;;;;26.77;15.30;;;-5.10;99.90;;;;;;4990213;28;20054;-76
2022/12/16 03:44:44;;;;;;;29.08;15.30;;;-5.10;99.90;;;;;;4990033;28;20060;-77
2022/12/16 03:47:13;;;;;;;33.17;16.00;;;-5.20;99.90;;;;;;4988062;28;20046;-77
2022/12/16 03:49:42;;;;;;;25.65;15.70;;;-5.20;99.90;;;;;;4990171;28;20150;-75
2022/12/16 03:52:09;;;;;;;28.92;15.57;;;-5.20;99.90;;;;;;4990246;28;20084;-75
2022/12/16 03:54:37;;;;;;;29.10;15.57;;;-5.30;99.90;;;;;;4989621;28;20100;-76
2022/12/16 03:57:04;;;;;;;32.55;15.13;;;-5.30;99.90;;;;;;4988972;28;20050;-75
2022/12/16 03:59:32;;;;;;;31.67;16.15;;;-5.30;99.90;;;;;;4990736;28;20427;-74
2022/12/16 04:01:59;;;;;;;29.73;15.20;;;-5.30;99.90;;;;;;4991153;28;20081;-77
2022/12/16 04:04:28;;;;;;;37.92;16.88;;;-5.40;99.90;;;;;;4991202;28;20061;-78
2022/12/16 04:09:38;;;;;;;40.20;18.27;;;-5.30;99.90;;;;;;4988439;28;20058;-76
2022/12/16 04:26:12;;;;;;;37.70;17.30;;;-5.10;99.90;;;;;;4928783;29;20547;-75
2022/12/16 04:28:42;;;;;;;37.88;16.88;;;-5.10;99.90;;;;;;4955924;28;20089;-76
2022/12/16 04:31:09;;;;;;;42.22;19.00;;;-5.10;99.90;;;;;;4990484;28;20054;-71
